createdAt,value
2024-04-30T04:15:05.012Z,34.00
2024-04-30T04:16:05.128Z,33.00
2024-04-30T04:17:05.281Z,35.00
2024-04-30T04:18:05.485Z,38.00
2024-04-30T04:19:05.555Z,41.00
2024-04-30T04:20:05.663Z,40.00
2024-04-30T04:21:05.792Z,42.00
2024-04-30T04:22:05.978Z,41.00
2024-04-30T04:23:06.091Z,47.00
2024-04-30T04:24:06.200Z,47.00
2024-04-30T04:25:06.397Z,49.00
2024-04-30T04:26:06.474Z,55.00
2024-04-30T04:27:06.668Z,56.00
2024-04-30T04:28:06.794Z,55.00
2024-04-30T04:29:06.892Z,63.00
2024-04-30T04:30:07.049Z,65.00
2024-04-30T04:31:07.184Z,67.00
2024-04-30T04:32:07.535Z,71.00
2024-04-30T04:33:07.491Z,73.00
2024-04-30T04:34:07.594Z,76.00
2024-04-30T04:35:07.689Z,79.00
2024-04-30T04:36:07.828Z,80.00
2024-04-30T04:37:08.029Z,83.00
2024-04-30T04:38:08.075Z,85.00
2024-04-30T04:39:08.251Z,92.00
2024-04-30T04:40:08.549Z,93.00
2024-04-30T04:41:08.518Z,92.00
2024-04-30T04:42:08.687Z,102.00
2024-04-30T04:43:09.874Z,103.00
2024-04-30T04:44:09.827Z,106.00
2024-04-30T04:45:09.044Z,110.00
2024-04-30T04:46:09.212Z,116.00
2024-04-30T04:47:09.492Z,125.00
2024-04-30T04:48:09.473Z,131.00
2024-04-30T04:49:09.586Z,141.00
2024-04-30T04:50:09.658Z,141.00
2024-04-30T04:51:09.788Z,146.00
2024-04-30T04:52:09.947Z,149.00
2024-04-30T04:53:10.146Z,152.00
2024-04-30T04:54:10.167Z,158.00
2024-04-30T04:55:10.303Z,163.00
2024-04-30T04:56:10.435Z,160.00
2024-04-30T04:57:10.581Z,166.00
2024-04-30T04:58:10.771Z,167.00
2024-04-30T04:59:10.857Z,173.00
2024-04-30T05:00:10.980Z,178.00
2024-04-30T05:01:12.740Z,185.00
2024-04-30T05:02:11.358Z,187.00
2024-04-30T05:03:11.429Z,193.00
2024-04-30T05:04:11.712Z,203.00
2024-04-30T05:05:11.646Z,205.00
2024-04-30T05:06:11.775Z,208.00
2024-04-30T05:07:11.951Z,206.00
2024-04-30T05:08:12.050Z,210.00
2024-04-30T05:09:12.242Z,210.00
2024-04-30T05:10:12.357Z,214.00
2024-04-30T05:11:12.460Z,215.00
2024-04-30T05:12:12.579Z,215.00
2024-04-30T05:13:13.691Z,217.00
2024-04-30T05:14:12.852Z,219.00
2024-04-30T05:15:12.964Z,225.00
2024-04-30T05:16:13.135Z,226.00
2024-04-30T05:17:13.253Z,226.00
2024-04-30T05:18:13.375Z,230.00
2024-04-30T05:19:13.462Z,231.00
2024-04-30T05:20:13.597Z,231.00
2024-04-30T05:21:14.659Z,236.00
2024-04-30T05:22:13.897Z,235.00
2024-04-30T05:23:14.511Z,234.00
2024-04-30T05:24:14.106Z,235.00
2024-04-30T05:25:14.235Z,235.00
2024-04-30T05:26:15.288Z,241.00
2024-04-30T05:27:14.444Z,239.00
2024-04-30T05:28:14.583Z,241.00
2024-04-30T05:29:14.741Z,242.00
2024-04-30T05:30:14.821Z,244.00
2024-04-30T05:31:14.967Z,250.00
2024-04-30T05:32:15.039Z,256.00
2024-04-30T05:33:15.315Z,254.00
2024-04-30T05:34:15.321Z,257.00
2024-04-30T05:35:15.420Z,258.00
2024-04-30T05:36:15.510Z,259.00
2024-04-30T05:37:15.731Z,259.00
2024-04-30T05:38:15.770Z,260.00
2024-04-30T05:39:15.902Z,261.00
2024-04-30T05:40:16.055Z,258.00
2024-04-30T05:41:16.147Z,260.00
2024-04-30T05:42:16.262Z,255.00
2024-04-30T05:43:16.514Z,257.00
2024-04-30T05:44:16.608Z,249.00
2024-04-30T05:45:16.657Z,247.00
2024-04-30T05:46:16.928Z,241.00
2024-04-30T05:47:16.916Z,238.00
2024-04-30T05:48:17.051Z,253.00
2024-04-30T05:49:17.200Z,261.00
2024-04-30T05:50:18.122Z,268.00
2024-04-30T05:51:17.548Z,277.00
2024-04-30T05:52:17.686Z,299.00
2024-04-30T05:53:17.720Z,305.00
2024-04-30T05:54:17.866Z,313.00
2024-04-30T05:55:18.021Z,321.00
2024-04-30T05:56:18.099Z,328.00
2024-04-30T05:57:18.237Z,323.00
2024-04-30T05:58:18.778Z,321.00
2024-04-30T05:59:19.087Z,297.00
2024-04-30T06:00:18.886Z,302.00
2024-04-30T06:01:18.998Z,307.00
2024-04-30T06:02:19.799Z,305.00
2024-04-30T06:03:19.154Z,296.00
2024-04-30T06:04:20.268Z,280.00
2024-04-30T06:05:20.491Z,296.00
2024-04-30T06:06:19.494Z,285.00
2024-04-30T06:07:20.404Z,277.00
2024-04-30T06:08:19.694Z,288.00
2024-04-30T06:09:19.853Z,293.00
2024-04-30T06:10:20.900Z,306.00
2024-04-30T06:11:20.236Z,322.00
2024-04-30T06:12:20.250Z,341.00
2024-04-30T06:13:21.314Z,358.00
2024-04-30T06:14:23.258Z,381.00
2024-04-30T06:15:20.666Z,401.00
2024-04-30T06:16:21.775Z,418.00
2024-04-30T06:17:21.107Z,433.00
2024-04-30T06:18:21.897Z,435.00
2024-04-30T06:19:21.204Z,457.00
2024-04-30T06:20:22.172Z,403.00
2024-04-30T06:21:30.894Z,384.00
2024-04-30T06:22:22.605Z,459.00
2024-04-30T06:23:21.630Z,415.00
2024-04-30T06:24:23.574Z,412.00
2024-04-30T06:25:22.789Z,399.00
2024-04-30T06:26:22.113Z,423.00
2024-04-30T06:27:22.212Z,401.00
2024-04-30T06:28:22.581Z,369.00
2024-04-30T06:29:24.886Z,342.00
2024-04-30T06:30:23.503Z,338.00
2024-04-30T06:31:23.473Z,361.00
2024-04-30T06:32:23.760Z,365.00
2024-04-30T06:33:23.003Z,346.00
2024-04-30T06:34:23.055Z,513.00
2024-04-30T06:35:25.645Z,443.00
2024-04-30T06:36:23.286Z,626.00
2024-04-30T06:37:23.796Z,437.00
2024-04-30T06:38:24.547Z,401.00
2024-04-30T06:39:23.725Z,394.00
2024-04-30T06:40:27.300Z,404.00
2024-04-30T06:41:25.036Z,573.00
2024-04-30T06:42:24.932Z,589.00
2024-04-30T06:43:24.309Z,583.00
2024-04-30T06:44:25.234Z,578.00
2024-04-30T06:45:24.678Z,573.00
2024-04-30T06:46:24.719Z,561.00
2024-04-30T06:47:26.392Z,571.00
2024-04-30T06:48:25.103Z,570.00
2024-04-30T06:49:26.723Z,575.00
2024-04-30T06:50:25.296Z,595.00
2024-04-30T06:51:25.442Z,651.00
2024-04-30T06:52:25.525Z,527.00
2024-04-30T06:53:26.638Z,569.00
2024-04-30T06:54:25.807Z,560.00
2024-04-30T06:55:26.804Z,587.00
2024-04-30T06:56:26.997Z,605.00
2024-04-30T06:57:28.083Z,603.00
2024-04-30T06:58:27.241Z,597.00
2024-04-30T06:59:28.906Z,595.00
2024-04-30T07:00:27.982Z,583.00
2024-04-30T07:01:27.614Z,520.00
2024-04-30T07:02:26.795Z,498.00
2024-04-30T07:03:26.950Z,598.00
2024-04-30T07:04:27.060Z,601.00
2024-04-30T07:05:27.241Z,601.00
2024-04-30T07:06:27.318Z,600.00
2024-04-30T07:07:28.699Z,609.00
2024-04-30T07:08:27.733Z,614.00
2024-04-30T07:09:27.833Z,620.00
2024-04-30T07:10:28.046Z,614.00
2024-04-30T07:11:28.038Z,617.00
2024-04-30T07:12:28.205Z,620.00
2024-04-30T07:13:28.347Z,622.00
2024-04-30T07:14:28.516Z,622.00
2024-04-30T07:15:29.478Z,603.00
2024-04-30T07:16:28.747Z,629.00
2024-04-30T07:17:28.872Z,619.00
2024-04-30T07:18:29.088Z,635.00
2024-04-30T07:19:29.083Z,644.00
2024-04-30T07:20:30.095Z,650.00
2024-04-30T07:21:29.270Z,654.00
2024-04-30T07:22:29.500Z,654.00
2024-04-30T07:23:29.536Z,630.00
2024-04-30T07:24:29.715Z,625.00
2024-04-30T07:25:32.313Z,617.00
2024-04-30T07:26:30.877Z,656.00
2024-04-30T07:27:30.993Z,684.00
2024-04-30T07:28:30.350Z,655.00
2024-04-30T07:29:30.359Z,658.00
2024-04-30T07:30:32.373Z,665.00
2024-04-30T07:31:30.596Z,802.00
2024-04-30T07:32:31.488Z,704.00
2024-04-30T07:33:31.599Z,739.00
2024-04-30T07:34:31.772Z,695.00
2024-04-30T07:35:31.034Z,691.00
2024-04-30T07:36:31.270Z,746.00
2024-04-30T07:37:32.259Z,670.00
2024-04-30T07:38:31.461Z,671.00
2024-04-30T07:39:31.614Z,695.00
2024-04-30T07:40:32.402Z,672.00
2024-04-30T07:41:32.576Z,683.00
2024-04-30T07:42:32.743Z,675.00
2024-04-30T07:43:32.228Z,697.00
2024-04-30T07:44:32.537Z,699.00
2024-04-30T07:45:32.405Z,717.00
2024-04-30T07:46:32.680Z,726.00
2024-04-30T07:47:33.745Z,729.00
2024-04-30T07:48:33.712Z,724.00
2024-04-30T07:49:32.974Z,724.00
2024-04-30T07:50:32.968Z,736.00
2024-04-30T07:51:33.178Z,760.00
2024-04-30T07:52:33.329Z,680.00
2024-04-30T07:53:33.374Z,732.00
2024-04-30T07:54:33.503Z,727.00
2024-04-30T07:55:33.719Z,733.00
2024-04-30T07:56:33.780Z,731.00
2024-04-30T07:57:34.352Z,734.00
2024-04-30T07:58:34.875Z,741.00
2024-04-30T07:59:35.626Z,660.00
2024-04-30T08:00:34.410Z,747.00
2024-04-30T08:01:34.461Z,760.00
2024-04-30T08:02:35.489Z,780.00
2024-04-30T08:03:34.633Z,778.00
2024-04-30T08:04:36.195Z,781.00
2024-04-30T08:05:42.659Z,787.00
2024-04-30T08:06:36.813Z,798.00
2024-04-30T08:07:36.016Z,798.00
2024-04-30T08:08:35.258Z,787.00
2024-04-30T08:09:37.299Z,780.00
2024-04-30T08:10:38.037Z,775.00
2024-04-30T08:11:35.702Z,777.00
2024-04-30T08:12:36.511Z,780.00
2024-04-30T08:13:35.982Z,777.00
2024-04-30T08:14:36.666Z,770.00
2024-04-30T08:15:37.052Z,758.00
2024-04-30T08:16:36.949Z,759.00
2024-04-30T08:17:36.695Z,760.00
2024-04-30T08:18:38.079Z,750.00
2024-04-30T08:19:38.770Z,764.00
2024-04-30T08:20:36.838Z,770.00
2024-04-30T08:21:37.038Z,768.00
2024-04-30T08:22:37.408Z,764.00
2024-04-30T08:23:38.031Z,770.00
2024-04-30T08:24:38.195Z,769.00
2024-04-30T08:25:37.638Z,766.00
2024-04-30T08:26:37.746Z,772.00
2024-04-30T08:27:39.193Z,774.00
2024-04-30T08:28:37.977Z,786.00
2024-04-30T08:29:40.499Z,793.00
2024-04-30T08:30:38.902Z,799.00
2024-04-30T08:31:39.367Z,796.00
2024-04-30T08:32:38.402Z,835.00
2024-04-30T08:33:38.655Z,827.00
2024-04-30T08:34:41.075Z,562.00
2024-04-30T08:35:39.670Z,421.00
2024-04-30T08:36:39.814Z,528.00
2024-04-30T08:37:47.517Z,453.00
2024-04-30T08:38:40.126Z,678.00
2024-04-30T08:39:39.196Z,335.00
2024-04-30T08:40:40.398Z,389.00
2024-04-30T08:41:39.575Z,538.00
2024-04-30T08:42:39.670Z,456.00
2024-04-30T08:43:40.709Z,410.00
2024-04-30T08:44:39.964Z,409.00
2024-04-30T08:45:39.960Z,665.00
2024-04-30T08:46:41.070Z,502.00
2024-04-30T08:47:41.029Z,527.00
2024-04-30T08:48:42.803Z,551.00
2024-04-30T08:49:46.906Z,581.00
2024-04-30T08:50:41.700Z,521.00
2024-04-30T08:51:41.714Z,771.00
2024-04-30T08:52:40.971Z,709.00
2024-04-30T08:53:41.787Z,959.00
2024-04-30T08:54:41.967Z,1081.00
2024-04-30T08:55:43.231Z,1065.00
2024-04-30T08:56:42.396Z,1277.00
2024-04-30T08:57:41.501Z,879.00
2024-04-30T08:58:41.779Z,1146.00
2024-04-30T08:59:44.440Z,907.00
2024-04-30T09:00:42.892Z,1299.00
2024-04-30T09:01:43.049Z,1062.00
2024-04-30T09:02:42.237Z,1152.00
2024-04-30T09:03:44.833Z,1076.00
2024-04-30T09:04:43.334Z,1060.00
2024-04-30T09:05:44.951Z,1055.00
2024-04-30T09:06:42.790Z,1093.00
2024-04-30T09:07:45.328Z,1368.00
2024-04-30T09:08:45.900Z,1140.00
2024-04-30T09:09:43.954Z,1188.00
2024-04-30T09:10:45.705Z,1165.00
2024-04-30T09:11:45.871Z,1135.00
2024-04-30T09:12:44.336Z,1179.00
2024-04-30T09:13:44.584Z,1107.00
2024-04-30T09:14:44.628Z,1041.00
2024-04-30T09:15:44.791Z,1009.00
2024-04-30T09:16:45.018Z,1076.00
2024-04-30T09:17:45.210Z,1115.00
2024-04-30T09:18:45.000Z,1126.00
2024-04-30T09:19:46.984Z,1125.00
2024-04-30T09:20:44.530Z,1336.00
2024-04-30T09:21:48.250Z,1324.00
2024-04-30T09:22:46.825Z,1204.00
2024-04-30T09:23:47.328Z,1189.00
2024-04-30T09:24:45.019Z,1070.00
2024-04-30T09:25:46.655Z,1222.00
2024-04-30T09:26:46.035Z,1317.00
2024-04-30T09:27:46.181Z,1263.00
2024-04-30T09:28:46.373Z,1200.00
2024-04-30T09:29:46.505Z,1196.00
2024-04-30T09:30:45.792Z,1250.00
2024-04-30T09:31:45.912Z,1270.00
2024-04-30T09:32:46.056Z,1223.00
2024-04-30T09:33:46.283Z,1240.00
2024-04-30T09:34:46.316Z,1260.00
2024-04-30T09:35:46.593Z,1226.00
2024-04-30T09:36:46.503Z,1237.00
2024-04-30T09:37:46.663Z,1305.00
2024-04-30T09:38:46.779Z,1322.00
2024-04-30T09:39:46.888Z,1329.00
2024-04-30T09:40:47.093Z,1306.00
2024-04-30T09:41:47.169Z,1306.00
2024-04-30T09:42:47.983Z,1310.00
2024-04-30T09:43:48.407Z,1315.00
2024-04-30T09:44:47.563Z,1311.00
2024-04-30T09:45:47.733Z,1325.00
2024-04-30T09:46:48.201Z,1294.00
2024-04-30T09:47:47.931Z,1296.00
2024-04-30T09:48:48.422Z,1290.00
2024-04-30T09:49:48.723Z,1367.00
2024-04-30T09:50:50.124Z,1426.00
2024-04-30T09:51:50.279Z,1343.00
2024-04-30T09:52:49.974Z,1366.00
2024-04-30T09:53:48.642Z,1291.00
2024-04-30T09:54:49.683Z,1440.00
2024-04-30T09:55:49.928Z,1426.00
2024-04-30T09:56:48.988Z,1401.00
2024-04-30T09:57:49.143Z,1381.00
2024-04-30T09:58:50.243Z,1360.00
2024-04-30T09:59:50.365Z,1375.00
2024-04-30T10:00:50.279Z,1469.00
2024-04-30T10:01:52.192Z,1491.00
2024-04-30T10:02:49.812Z,1480.00
2024-04-30T10:03:49.958Z,1461.00
2024-04-30T10:04:50.227Z,1434.00
2024-04-30T10:05:50.355Z,1384.00
2024-04-30T10:06:52.338Z,1334.00
2024-04-30T10:07:50.578Z,1381.00
2024-04-30T10:08:50.545Z,1378.00
2024-04-30T10:09:51.595Z,1280.00
2024-04-30T10:10:51.664Z,1150.00
2024-04-30T10:11:51.552Z,1066.00
2024-04-30T10:12:53.479Z,1401.00
2024-04-30T10:13:51.224Z,1331.00
2024-04-30T10:14:52.185Z,1372.00
2024-04-30T10:15:51.448Z,1254.00
2024-04-30T10:16:52.403Z,1391.00
2024-04-30T10:17:51.788Z,1452.00
2024-04-30T10:30:05.972Z,894.00
2024-04-30T10:30:30.767Z,908.00
2024-04-30T10:31:30.155Z,931.00
2024-04-30T10:32:30.235Z,781.00
2024-04-30T10:33:33.320Z,873.00
2024-04-30T10:34:31.099Z,944.00
2024-04-30T10:35:30.344Z,852.00
2024-04-30T10:36:30.409Z,979.00
2024-04-30T10:37:30.760Z,961.00
2024-04-30T10:38:30.683Z,1019.00
2024-04-30T10:39:31.887Z,911.00
2024-04-30T10:40:31.823Z,732.00
2024-04-30T10:41:31.960Z,1026.00
2024-04-30T10:42:31.854Z,935.00
2024-04-30T10:43:32.404Z,1062.00
2024-04-30T10:44:31.478Z,1124.00
2024-04-30T10:45:31.565Z,1008.00
2024-04-30T10:46:33.316Z,1048.00
2024-04-30T10:47:31.782Z,1179.00
2024-04-30T10:48:32.271Z,1107.00
2024-04-30T10:49:32.118Z,1280.00
2024-04-30T10:50:32.103Z,1308.00
2024-04-30T10:51:33.134Z,1316.00
2024-04-30T10:52:32.348Z,1288.00
2024-04-30T10:53:33.207Z,1040.00
2024-04-30T10:54:35.607Z,951.00
2024-04-30T10:55:33.511Z,842.00
2024-04-30T10:56:32.876Z,913.00
2024-04-30T10:57:33.400Z,1047.00
2024-04-30T10:58:33.354Z,986.00
2024-04-30T10:59:34.065Z,973.00
2024-04-30T11:00:33.429Z,1122.00
2024-04-30T11:01:34.702Z,977.00
2024-04-30T11:02:33.749Z,987.00
2024-04-30T11:03:34.874Z,1061.00
2024-04-30T11:04:34.148Z,1177.00
2024-04-30T11:05:34.178Z,1051.00
2024-04-30T11:06:34.294Z,1045.00
2024-04-30T11:07:34.391Z,1047.00
2024-04-30T11:08:34.443Z,1034.00
2024-04-30T11:09:42.496Z,1047.00
2024-04-30T11:10:35.056Z,1058.00
2024-04-30T11:11:36.493Z,1053.00
2024-04-30T11:12:37.888Z,1056.00
2024-04-30T11:13:35.288Z,1064.00
2024-04-30T11:14:35.884Z,1070.00
2024-04-30T11:15:35.650Z,1077.00
2024-04-30T11:16:35.873Z,1082.00
2024-04-30T11:17:35.700Z,1096.00
2024-04-30T11:18:35.911Z,1107.00
2024-04-30T11:20:52.189Z,1136.00
2024-04-30T11:21:55.767Z,1143.00
2024-04-30T11:22:53.341Z,1143.00
2024-04-30T11:23:53.494Z,1157.00
2024-04-30T11:24:52.720Z,1167.00
2024-04-30T11:25:52.837Z,1171.00
2024-04-30T11:26:52.930Z,1183.00
2024-04-30T11:27:53.086Z,1198.00
2024-04-30T11:29:03.516Z,1217.00
2024-04-30T11:29:54.317Z,1232.00
2024-04-30T11:30:53.505Z,1239.00
2024-04-30T11:31:54.247Z,1246.00
2024-04-30T11:32:54.165Z,1248.00
2024-04-30T11:33:53.847Z,1265.00
2024-04-30T11:34:53.862Z,1279.00
2024-04-30T11:35:54.646Z,1303.00
2024-04-30T11:36:54.109Z,1313.00
2024-04-30T11:37:54.295Z,1341.00
2024-04-30T11:38:54.368Z,1358.00
2024-04-30T11:39:54.495Z,1385.00
2024-04-30T11:40:54.635Z,1402.00
2024-04-30T11:42:01.892Z,1408.00
2024-04-30T11:42:56.792Z,1439.00
2024-04-30T11:43:56.430Z,1445.00
2024-04-30T11:44:57.086Z,1465.00
2024-04-30T11:45:55.258Z,1483.00
2024-04-30T11:46:55.392Z,1502.00
2024-04-30T11:47:55.545Z,1522.00
2024-04-30T11:48:55.654Z,1544.00
2024-04-30T11:49:55.872Z,1573.00
2024-04-30T11:50:56.789Z,1603.00
2024-04-30T11:51:56.032Z,1642.00
2024-04-30T11:52:56.377Z,1672.00
2024-04-30T11:53:58.706Z,1695.00
2024-04-30T11:54:57.174Z,1726.00
2024-04-30T11:55:56.576Z,1763.00
2024-04-30T11:56:57.727Z,1803.00
2024-04-30T11:57:56.808Z,1841.00
2024-04-30T11:58:56.966Z,1882.00
2024-04-30T11:59:57.034Z,1929.00
2024-04-30T12:00:57.211Z,1980.00
2024-04-30T12:01:57.404Z,2034.00
2024-04-30T12:02:57.402Z,2085.00
2024-04-30T12:03:58.437Z,2134.00
2024-04-30T12:04:58.820Z,2202.00
2024-04-30T12:05:57.815Z,2252.00
2024-04-30T12:06:57.820Z,2330.00
2024-04-30T12:07:57.948Z,2417.00
2024-04-30T12:08:58.124Z,2498.00
2024-04-30T12:09:59.139Z,2613.00
2024-04-30T12:10:58.460Z,2738.00
2024-04-30T12:11:58.491Z,2878.00
2024-04-30T12:12:59.282Z,3055.00
2024-04-30T12:13:59.774Z,3274.00
2024-04-30T12:14:58.954Z,3564.00
2024-04-30T12:15:59.167Z,3984.00
2024-04-30T12:16:59.425Z,3826.00
2024-04-30T12:17:59.911Z,10962.00
2024-04-30T12:18:59.421Z,22937.00
2024-04-30T12:20:00.432Z,27536.00
2024-04-30T12:21:00.561Z,21321.00
2024-04-30T12:22:01.744Z,22169.00
2024-04-30T12:23:01.916Z,26739.00
2024-04-30T12:24:02.527Z,32585.00
2024-04-30T12:25:00.962Z,24786.00
2024-04-30T12:26:01.279Z,26319.00
2024-04-30T12:27:00.545Z,27572.00
2024-04-30T12:28:01.435Z,29924.00
2024-04-30T12:29:00.826Z,29335.00
2024-04-30T12:30:00.932Z,30736.00
2024-04-30T12:31:01.906Z,29913.00
2024-04-30T12:32:01.121Z,26520.00
2024-04-30T12:33:02.048Z,24072.00
2024-04-30T12:34:02.182Z,25279.00
2024-04-30T12:35:02.301Z,28258.00
2024-04-30T12:36:02.460Z,26930.00
2024-04-30T12:37:01.877Z,28092.00
2024-04-30T12:38:01.797Z,26427.00
2024-04-30T12:39:02.058Z,24169.00
2024-04-30T12:40:05.890Z,22691.00
2024-04-30T12:41:05.805Z,28554.00
2024-04-30T12:42:02.414Z,34373.00
2024-04-30T12:43:02.582Z,23307.00
2024-04-30T12:44:03.824Z,30543.00
2024-04-30T12:45:02.909Z,32902.00
2024-04-30T12:46:05.350Z,32843.00
2024-04-30T12:47:03.097Z,30128.00
2024-04-30T12:48:03.264Z,29343.00
2024-04-30T12:49:03.432Z,27099.00
2024-04-30T12:50:03.424Z,31180.00
2024-04-30T12:51:05.970Z,29539.00
2024-04-30T12:52:03.754Z,26495.00
2024-04-30T12:53:05.736Z,28088.00
2024-04-30T12:54:03.923Z,30150.00
2024-04-30T12:55:04.962Z,30030.00
2024-04-30T12:56:04.160Z,28262.00
2024-04-30T12:57:05.258Z,28456.00
2024-04-30T12:58:04.430Z,25458.00
2024-04-30T12:59:06.963Z,26589.00
2024-04-30T13:00:04.659Z,28014.00
2024-04-30T13:01:07.369Z,25547.00
2024-04-30T13:02:04.997Z,26503.00
2024-04-30T13:03:06.107Z,30361.00
2024-04-30T13:04:06.915Z,30525.00
2024-04-30T13:05:05.529Z,27941.00
2024-04-30T13:06:05.419Z,26770.00
2024-04-30T13:07:06.604Z,26988.00
2024-04-30T13:08:08.174Z,30497.00
2024-04-30T13:09:06.718Z,31674.00
2024-04-30T13:10:06.175Z,29060.00
2024-04-30T13:11:07.163Z,27616.00
2024-04-30T13:12:08.644Z,30160.00
2024-04-30T13:13:06.521Z,28319.00
2024-04-30T13:14:06.499Z,25671.00
2024-04-30T13:15:06.630Z,27518.00
2024-04-30T13:16:07.703Z,26667.00
2024-04-30T13:17:06.849Z,25829.00
2024-04-30T13:18:08.939Z,26054.00
2024-04-30T13:19:07.176Z,23488.00
2024-04-30T13:20:07.239Z,20330.00
2024-04-30T13:21:08.313Z,21327.00
2024-04-30T13:22:07.575Z,24529.00
2024-04-30T13:23:07.606Z,25903.00
2024-04-30T13:24:07.682Z,28354.00
2024-04-30T13:25:07.858Z,27043.00
2024-04-30T13:26:08.000Z,26561.00
2024-04-30T13:27:12.232Z,26730.00
2024-04-30T13:28:09.032Z,23961.00
2024-04-30T13:29:09.139Z,19558.00
2024-04-30T13:30:08.430Z,10888.00
2024-04-30T13:31:09.537Z,8436.00
2024-04-30T13:32:08.787Z,10525.00
2024-04-30T13:33:09.627Z,18934.00
2024-04-30T13:34:09.720Z,22121.00
2024-04-30T13:35:09.840Z,23154.00
2024-04-30T13:36:09.992Z,22976.00
2024-04-30T13:37:11.335Z,22239.00
2024-04-30T13:38:09.464Z,22284.00
2024-04-30T13:39:10.482Z,15979.00
2024-04-30T13:40:10.679Z,8857.00
2024-04-30T13:41:10.027Z,8796.00
2024-04-30T13:42:10.705Z,16872.00
2024-04-30T13:43:10.882Z,22827.00
2024-04-30T13:44:11.026Z,23618.00
2024-04-30T13:45:11.210Z,23793.00
2024-04-30T13:46:11.374Z,24171.00
2024-04-30T13:47:11.516Z,22179.00
2024-04-30T13:48:11.495Z,23703.00
2024-04-30T13:49:11.662Z,25903.00
2024-04-30T13:50:10.936Z,22891.00
2024-04-30T13:51:11.100Z,21879.00
2024-04-30T13:52:11.210Z,23798.00
2024-04-30T13:53:12.224Z,23996.00
2024-04-30T13:54:11.440Z,22298.00
2024-04-30T13:55:12.324Z,21601.00
2024-04-30T13:56:12.483Z,21418.00
2024-04-30T13:57:12.071Z,22759.00
2024-04-30T13:58:12.059Z,21863.00
2024-04-30T13:59:12.922Z,20727.00
2024-04-30T14:00:12.191Z,19779.00
2024-04-30T14:01:12.331Z,19311.00
2024-04-30T14:02:12.531Z,21059.00
2024-04-30T14:03:12.568Z,20627.00
2024-04-30T14:04:12.805Z,21662.00
2024-04-30T14:05:12.800Z,20978.00
2024-04-30T14:06:12.914Z,21587.00
2024-04-30T14:07:13.076Z,23463.00
2024-04-30T14:08:13.178Z,21520.00
2024-04-30T14:09:13.266Z,20299.00
2024-04-30T14:10:13.485Z,17282.00
2024-04-30T14:11:14.366Z,9787.00
2024-04-30T14:12:13.662Z,4751.00
2024-04-30T14:13:13.821Z,3913.00
2024-04-30T14:14:13.902Z,3497.00
2024-04-30T14:15:14.047Z,3199.00
2024-04-30T14:16:14.769Z,2975.00
2024-04-30T14:17:14.329Z,2823.00
2024-04-30T14:18:14.466Z,2734.00
2024-04-30T14:19:15.541Z,2654.00
2024-04-30T14:20:14.713Z,2573.00
2024-04-30T14:21:14.812Z,2508.00
2024-04-30T14:22:14.979Z,2443.00
2024-04-30T14:23:15.045Z,2370.00
2024-04-30T14:24:15.228Z,2299.00
2024-04-30T14:25:15.302Z,2219.00
2024-04-30T14:26:15.442Z,2148.00
2024-04-30T14:27:15.596Z,2060.00
2024-04-30T14:28:15.722Z,1980.00
2024-04-30T14:29:15.846Z,1888.00
2024-04-30T14:30:15.994Z,1805.00
2024-04-30T14:31:19.024Z,1743.00
2024-04-30T14:32:16.215Z,1692.00
2024-04-30T14:33:16.431Z,1627.00
2024-04-30T14:34:16.523Z,1599.00
2024-04-30T14:35:16.740Z,1571.00
2024-04-30T14:36:16.711Z,1546.00
2024-04-30T14:37:16.891Z,1513.00
2024-04-30T14:38:16.961Z,1505.00
2024-04-30T14:39:17.124Z,1499.00
2024-04-30T14:40:17.263Z,1487.00
2024-04-30T14:41:17.376Z,1455.00
2024-04-30T14:42:17.458Z,1433.00
2024-04-30T14:43:17.694Z,1383.00
2024-04-30T14:44:17.743Z,1378.00
2024-04-30T14:45:17.949Z,1369.00
2024-04-30T14:46:18.079Z,1369.00
2024-04-30T14:47:18.143Z,1360.00
2024-04-30T14:48:18.314Z,1343.00
2024-04-30T14:49:18.466Z,1323.00
2024-04-30T14:50:18.584Z,1317.00
2024-04-30T14:51:18.743Z,1311.00
2024-04-30T14:52:18.953Z,1307.00
2024-04-30T14:53:19.016Z,1304.00
2024-04-30T14:54:19.172Z,1288.00
2024-04-30T14:55:19.304Z,1267.00
2024-04-30T14:56:19.399Z,1252.00
2024-04-30T14:57:19.525Z,1233.00
2024-04-30T14:58:19.730Z,1220.00
2024-04-30T14:59:19.829Z,1178.00
2024-04-30T15:00:19.984Z,1197.00
2024-04-30T15:01:20.173Z,1188.00
2024-04-30T15:02:20.207Z,1190.00
2024-04-30T15:03:20.439Z,1146.00
2024-04-30T15:04:20.627Z,1116.00
2024-04-30T15:05:20.568Z,1093.00
2024-04-30T15:06:20.700Z,1050.00
2024-04-30T15:07:20.900Z,1041.00
2024-04-30T15:08:20.966Z,1016.00
2024-04-30T15:09:21.096Z,1001.00
2024-04-30T15:10:22.193Z,988.00
2024-04-30T15:11:21.420Z,980.00
2024-04-30T15:12:21.482Z,975.00
2024-04-30T15:13:21.563Z,976.00
2024-04-30T15:14:21.738Z,961.00
2024-04-30T15:15:21.851Z,956.00
2024-04-30T15:16:21.992Z,954.00
2024-04-30T15:17:22.189Z,941.00
2024-04-30T15:18:22.405Z,919.00
2024-04-30T15:19:22.469Z,903.00
2024-04-30T15:20:22.551Z,895.00
2024-04-30T15:21:22.705Z,893.00
2024-04-30T15:22:22.927Z,900.00
2024-04-30T15:23:22.961Z,914.00
2024-04-30T15:24:23.983Z,925.00
2024-04-30T15:25:23.244Z,921.00
2024-04-30T15:26:23.377Z,914.00
2024-04-30T15:27:23.504Z,902.00
2024-04-30T15:28:23.635Z,896.00
2024-04-30T15:29:23.755Z,888.00
2024-04-30T15:30:23.906Z,877.00
2024-04-30T15:31:24.298Z,874.00
2024-04-30T15:32:24.261Z,874.00
2024-04-30T15:33:24.455Z,870.00
2024-04-30T15:34:24.549Z,867.00
2024-04-30T15:35:24.585Z,856.00
2024-04-30T15:36:24.692Z,847.00
2024-04-30T15:37:24.941Z,832.00
2024-04-30T15:38:24.999Z,821.00
2024-04-30T15:39:25.126Z,806.00
2024-04-30T15:40:25.356Z,785.00
2024-04-30T15:41:25.516Z,767.00
2024-04-30T15:42:25.512Z,750.00
2024-04-30T15:43:25.714Z,735.00
2024-04-30T15:44:25.801Z,719.00
2024-04-30T15:45:25.911Z,714.00
2024-04-30T15:46:26.123Z,705.00
2024-04-30T15:47:26.298Z,700.00
2024-04-30T15:48:26.389Z,699.00
2024-04-30T15:49:26.426Z,701.00
2024-04-30T15:50:26.571Z,700.00
2024-04-30T15:51:26.694Z,694.00
2024-04-30T15:52:26.894Z,688.00
2024-04-30T15:53:26.930Z,686.00
2024-04-30T15:54:27.052Z,681.00
2024-04-30T15:55:27.204Z,680.00
2024-04-30T15:56:27.330Z,676.00
2024-04-30T15:57:27.485Z,669.00
2024-04-30T15:58:27.662Z,661.00
2024-04-30T15:59:27.766Z,651.00
2024-04-30T16:00:27.965Z,643.00
2024-04-30T16:01:28.075Z,626.00
2024-04-30T16:02:28.195Z,615.00
2024-04-30T16:03:28.420Z,614.00
2024-04-30T16:04:28.541Z,619.00
2024-04-30T16:05:28.605Z,622.00
2024-04-30T16:06:28.755Z,625.00
2024-04-30T16:07:28.853Z,629.00
2024-04-30T16:08:28.953Z,628.00
2024-04-30T16:09:29.680Z,628.00
2024-04-30T16:10:29.228Z,626.00
2024-04-30T16:11:29.323Z,617.00
2024-04-30T16:12:29.528Z,613.00
2024-04-30T16:13:29.755Z,599.00
2024-04-30T16:14:29.768Z,589.00
2024-04-30T16:15:29.915Z,576.00
2024-04-30T16:16:30.095Z,572.00
2024-04-30T16:28:50.344Z,519.00
2024-04-30T16:29:50.412Z,520.00
2024-04-30T16:30:50.589Z,515.00
2024-04-30T16:31:50.791Z,512.00
2024-04-30T16:32:50.955Z,498.00
2024-04-30T16:33:51.036Z,487.00
2024-04-30T16:34:52.021Z,476.00
2024-04-30T16:35:52.194Z,460.00
2024-04-30T16:36:51.368Z,447.00
2024-04-30T16:37:51.457Z,440.00
2024-04-30T16:38:51.584Z,433.00
2024-04-30T16:39:51.748Z,425.00
2024-04-30T16:40:51.872Z,417.00
2024-04-30T16:41:51.967Z,413.00
2024-04-30T16:42:52.149Z,414.00
2024-04-30T16:43:52.237Z,415.00
2024-04-30T16:44:56.417Z,412.00
2024-04-30T16:45:53.540Z,413.00
2024-04-30T16:46:52.639Z,409.00
2024-04-30T16:47:52.821Z,407.00
2024-04-30T16:48:53.005Z,403.00
2024-04-30T16:49:53.033Z,396.00
2024-04-30T16:50:53.186Z,390.00
2024-04-30T16:51:53.482Z,383.00
2024-04-30T16:52:54.083Z,378.00
2024-04-30T16:53:53.593Z,375.00
2024-04-30T16:54:53.853Z,371.00